createdAt,value
2022-10-02T00:01:28.760Z,93.26
2022-10-02T00:03:58.990Z,93.52
2022-10-02T00:06:41.236Z,93.37
2022-10-02T00:09:17.142Z,93.43
2022-10-02T00:11:48.841Z,93.24
2022-10-02T00:14:21.329Z,93.67
2022-10-02T00:16:54.853Z,93.57
2022-10-02T00:19:23.019Z,93.73
2022-10-02T00:22:20.326Z,93.72
2022-10-02T00:24:54.622Z,93.17
2022-10-02T00:27:50.930Z,93.56
2022-10-02T00:30:19.930Z,93.11
2022-10-02T00:33:06.102Z,93.72
2022-10-02T00:35:56.980Z,93.37
2022-10-02T00:38:39.076Z,93.78
2022-10-02T00:41:24.054Z,93.07
2022-10-02T00:44:15.700Z,93.05
2022-10-02T00:46:53.806Z,93.13
2022-10-02T00:49:52.095Z,93.43
2022-10-02T00:52:43.014Z,93.41
2022-10-02T00:55:34.723Z,93.82
2022-10-02T00:58:34.561Z,94.23
2022-10-02T01:01:09.843Z,94.07
2022-10-02T01:03:41.391Z,94.20
2022-10-02T01:06:13.127Z,94.75
2022-10-02T01:08:41.836Z,94.37
2022-10-02T01:11:10.072Z,94.60
2022-10-02T01:13:38.267Z,94.56
2022-10-02T01:16:12.145Z,94.71
2022-10-02T01:18:40.612Z,94.57
2022-10-02T01:21:14.219Z,94.55
2022-10-02T01:23:52.990Z,94.36
2022-10-02T01:26:22.494Z,94.63
2022-10-02T01:28:51.242Z,94.65
2022-10-02T01:31:19.466Z,94.70
2022-10-02T01:33:49.850Z,94.57
2022-10-02T01:36:18.574Z,94.89
2022-10-02T01:38:49.244Z,94.94
2022-10-02T01:41:17.308Z,94.76
2022-10-02T01:43:50.286Z,95.18
2022-10-02T01:46:33.077Z,95.22
2022-10-02T01:49:21.113Z,95.30
2022-10-02T01:52:14.377Z,95.38
2022-10-02T01:54:57.876Z,95.22
2022-10-02T01:57:39.263Z,95.19
2022-10-02T02:00:12.435Z,95.35
2022-10-02T02:02:53.463Z,95.31
2022-10-02T02:05:41.602Z,95.35
2022-10-02T02:08:16.780Z,95.59
2022-10-02T02:10:53.178Z,95.30
2022-10-02T02:13:27.736Z,96.00
2022-10-02T02:16:05.458Z,95.72
2022-10-02T02:18:40.521Z,95.38
2022-10-02T02:21:16.312Z,95.57
2022-10-02T02:23:45.327Z,95.50
2022-10-02T02:26:16.875Z,95.80
2022-10-02T02:28:51.450Z,95.66
2022-10-02T02:31:26.264Z,95.52
2022-10-02T02:33:59.473Z,95.60
2022-10-02T02:36:35.622Z,95.62
2022-10-02T02:39:09.137Z,95.58
2022-10-02T02:41:43.180Z,95.73
2022-10-02T02:44:18.517Z,96.00
2022-10-02T02:47:06.678Z,95.98
2022-10-02T02:49:51.221Z,95.61
2022-10-02T02:52:23.871Z,95.98
2022-10-02T02:54:57.440Z,95.90
2022-10-02T02:57:33.423Z,95.97
2022-10-02T03:00:04.007Z,96.47
2022-10-02T03:02:33.703Z,96.40
2022-10-02T03:05:01.877Z,96.08
2022-10-02T03:07:30.169Z,96.29
2022-10-02T03:10:07.615Z,96.23
2022-10-02T03:12:53.344Z,96.35
2022-10-02T03:15:30.095Z,96.39
2022-10-02T03:18:28.159Z,97.16
2022-10-02T03:21:09.360Z,96.88
2022-10-02T03:23:54.187Z,96.98
2022-10-02T03:26:36.508Z,96.72
2022-10-02T03:29:12.351Z,96.75
2022-10-02T03:31:41.616Z,96.77
2022-10-02T03:34:11.402Z,96.80
2022-10-02T03:36:39.796Z,96.36
2022-10-02T03:39:25.864Z,96.34
2022-10-02T03:41:54.884Z,96.46
2022-10-02T03:44:22.977Z,96.31
2022-10-02T03:46:51.072Z,96.48
2022-10-02T03:49:20.860Z,97.02
2022-10-02T03:51:49.335Z,96.59
2022-10-02T03:54:21.160Z,96.72
2022-10-02T03:56:56.985Z,96.62
2022-10-02T03:59:38.350Z,96.60
2022-10-02T04:02:12.678Z,96.83
2022-10-02T04:04:49.225Z,96.78
2022-10-02T04:07:22.965Z,96.79
2022-10-02T04:09:58.985Z,96.73
2022-10-02T04:12:34.663Z,96.87
2022-10-02T04:15:10.744Z,97.00
2022-10-02T04:17:45.222Z,96.86
2022-10-02T04:20:21.349Z,97.02
2022-10-02T04:22:55.908Z,96.58
2022-10-02T04:25:27.923Z,96.87
2022-10-02T04:28:00.738Z,97.12
2022-10-02T04:30:30.086Z,96.96
2022-10-02T04:32:59.639Z,96.63
2022-10-02T04:35:37.279Z,96.67
2022-10-02T04:38:33.286Z,96.56
2022-10-02T04:41:26.150Z,96.99
2022-10-02T04:44:09.058Z,96.93
2022-10-02T04:46:58.742Z,97.07
2022-10-02T04:49:57.060Z,96.91
2022-10-02T04:52:52.421Z,96.70
2022-10-02T04:55:53.777Z,96.91
2022-10-02T04:58:49.567Z,97.19
2022-10-02T05:01:31.087Z,97.13
2022-10-02T05:04:30.893Z,96.93
2022-10-02T05:07:17.018Z,96.91
2022-10-02T05:09:58.438Z,97.06
2022-10-02T05:12:48.836Z,97.18
2022-10-02T05:15:54.456Z,96.93
2022-10-02T05:18:46.997Z,96.75
2022-10-02T05:21:31.855Z,97.08
2022-10-02T05:24:18.066Z,96.90
2022-10-02T05:27:08.362Z,96.82
2022-10-02T05:29:59.009Z,96.64
2022-10-02T05:33:04.279Z,96.95
2022-10-02T05:36:09.566Z,96.65
2022-10-02T05:39:02.299Z,96.84
2022-10-02T05:41:40.823Z,96.83
2022-10-02T05:44:16.580Z,97.01
2022-10-02T05:46:50.814Z,97.08
2022-10-02T05:49:22.350Z,97.08
2022-10-02T05:52:00.615Z,96.84
2022-10-02T05:54:44.452Z,97.16
2022-10-02T05:57:22.465Z,96.82
2022-10-02T06:00:04.142Z,96.77
2022-10-02T06:02:42.436Z,96.57
2022-10-02T06:05:18.900Z,97.05
2022-10-02T06:07:51.041Z,96.42
2022-10-02T06:10:23.054Z,96.64
2022-10-02T06:12:58.237Z,96.59
2022-10-02T06:15:33.764Z,96.42
2022-10-02T06:18:07.695Z,96.64
2022-10-02T06:20:42.759Z,96.84
2022-10-02T06:23:16.433Z,96.53
2022-10-02T06:25:49.097Z,96.78
2022-10-02T06:28:23.751Z,96.83
2022-10-02T06:31:02.804Z,96.66
2022-10-02T06:33:34.019Z,96.90
2022-10-02T06:36:30.114Z,97.10
2022-10-02T06:39:28.027Z,97.32
2022-10-02T06:42:07.833Z,96.87
2022-10-02T06:44:47.520Z,96.87
2022-10-02T06:47:35.363Z,97.15
2022-10-02T06:50:24.661Z,97.40
2022-10-02T06:53:00.806Z,97.38
2022-10-02T06:55:43.448Z,97.19
2022-10-02T06:58:35.513Z,97.51
2022-10-02T07:01:12.842Z,97.43
2022-10-02T07:04:00.704Z,97.13
2022-10-02T07:06:43.730Z,97.57
2022-10-02T07:09:52.473Z,97.45
2022-10-02T07:12:54.013Z,97.25
2022-10-02T07:16:13.934Z,97.55
2022-10-02T07:19:11.882Z,98.05
2022-10-02T07:21:52.008Z,97.56
2022-10-02T07:24:45.784Z,97.63
2022-10-02T07:27:21.019Z,97.83
2022-10-02T07:29:59.372Z,97.54
2022-10-02T07:32:47.394Z,97.72
2022-10-02T07:35:42.263Z,97.86
2022-10-02T07:38:44.088Z,98.12
2022-10-02T07:41:40.957Z,97.85
2022-10-02T07:44:37.136Z,98.37
2022-10-02T07:47:19.097Z,98.38
2022-10-02T07:49:58.265Z,98.11
2022-10-02T07:52:39.687Z,97.87
2022-10-02T07:55:20.262Z,97.68
2022-10-02T07:58:01.599Z,97.31
2022-10-02T08:00:36.643Z,97.66
2022-10-02T08:03:13.619Z,97.10
2022-10-02T08:05:45.574Z,96.79
2022-10-02T08:08:23.129Z,96.50
2022-10-02T08:10:57.634Z,95.44
2022-10-02T08:13:32.848Z,95.92
2022-10-02T08:16:04.627Z,95.71
2022-10-02T08:18:37.369Z,96.54
2022-10-02T08:21:11.701Z,97.19
2022-10-02T08:23:48.465Z,97.06
2022-10-02T08:26:22.300Z,96.56
2022-10-02T08:29:01.161Z,96.35
2022-10-02T08:31:29.517Z,96.32
2022-10-02T08:33:58.533Z,96.27
2022-10-02T08:36:48.927Z,97.08
2022-10-02T08:40:01.481Z,96.81
2022-10-02T08:43:17.435Z,96.34
2022-10-02T08:46:24.901Z,96.01
2022-10-02T08:49:34.449Z,96.55
2022-10-02T08:52:53.662Z,96.20
2022-10-02T08:55:58.949Z,95.87
2022-10-02T08:59:08.709Z,96.08
2022-10-02T09:02:27.613Z,96.31
2022-10-02T09:05:43.059Z,96.31
2022-10-02T09:08:44.918Z,96.57
2022-10-02T09:12:13.022Z,96.28
2022-10-02T09:14:55.614Z,96.06
2022-10-02T09:17:49.633Z,95.92
2022-10-02T09:21:11.415Z,95.10
2022-10-02T09:24:43.233Z,95.23
2022-10-02T09:28:10.144Z,95.54
2022-10-02T09:31:33.266Z,95.84
2022-10-02T09:35:02.078Z,95.46
2022-10-02T09:38:21.165Z,95.53
2022-10-02T09:41:38.989Z,94.92
2022-10-02T09:45:00.410Z,95.00
2022-10-02T09:48:31.145Z,95.49
2022-10-02T09:51:41.794Z,95.44
2022-10-02T09:54:47.234Z,95.19
2022-10-02T09:57:55.394Z,94.94
2022-10-02T10:01:12.669Z,95.02
2022-10-02T10:05:04.468Z,95.02
2022-10-02T10:08:23.197Z,94.81
2022-10-02T10:11:17.250Z,94.46
2022-10-02T10:14:34.830Z,94.70
2022-10-02T10:17:56.075Z,94.94
2022-10-02T10:21:07.734Z,94.20
2022-10-02T10:24:15.666Z,94.73
2022-10-02T10:27:08.096Z,94.54
2022-10-02T10:30:08.636Z,94.67
2022-10-02T10:33:28.084Z,94.72
2022-10-02T10:37:01.242Z,94.33
2022-10-02T10:40:10.346Z,94.39
2022-10-02T10:43:16.885Z,94.66
2022-10-02T10:46:18.177Z,94.23
2022-10-02T10:49:18.272Z,93.29
2022-10-02T10:51:54.287Z,92.51
2022-10-02T10:54:58.242Z,91.58
2022-10-02T10:57:51.922Z,90.52
2022-10-02T11:00:23.503Z,89.50
2022-10-02T11:03:46.323Z,88.10
2022-10-02T11:06:51.809Z,87.11
2022-10-02T11:10:26.072Z,85.91
2022-10-02T11:13:19.178Z,84.78
2022-10-02T11:16:26.095Z,83.91
2022-10-02T11:19:34.393Z,82.49
2022-10-02T11:22:41.986Z,81.25
2022-10-02T11:25:58.145Z,79.95
2022-10-02T11:29:09.263Z,79.05
2022-10-02T11:32:14.328Z,78.33
2022-10-02T11:35:16.980Z,77.69
2022-10-02T11:38:13.085Z,76.48
2022-10-02T11:41:07.592Z,76.21
2022-10-02T11:44:06.371Z,75.53
2022-10-02T11:47:01.997Z,74.94
2022-10-02T11:50:37.445Z,75.95
2022-10-02T11:54:03.126Z,75.53
2022-10-02T11:56:46.449Z,74.82
2022-10-02T11:59:40.556Z,73.33
2022-10-02T12:02:16.933Z,72.49
2022-10-02T12:05:15.629Z,71.25
2022-10-02T12:07:53.315Z,70.18
2022-10-02T12:10:42.049Z,69.72
2022-10-02T12:13:47.081Z,68.45
2022-10-02T12:16:26.641Z,67.60
2022-10-02T12:19:12.779Z,66.68
2022-10-02T12:22:14.982Z,65.09
2022-10-02T12:25:16.193Z,63.77
2022-10-02T12:27:58.366Z,63.15
2022-10-02T12:30:36.159Z,64.17
2022-10-02T12:33:32.255Z,64.47
2022-10-02T12:36:27.749Z,64.44
2022-10-02T12:39:12.923Z,63.01
2022-10-02T12:42:12.239Z,62.23
2022-10-02T12:45:12.711Z,60.72
2022-10-02T12:47:57.018Z,59.79
2022-10-02T12:51:02.151Z,57.95
2022-10-02T12:54:09.597Z,56.83
2022-10-02T12:57:39.354Z,56.36
2022-10-02T13:00:15.728Z,55.06
2022-10-02T13:03:36.945Z,53.78
2022-10-02T13:06:45.381Z,53.25
2022-10-02T13:09:36.397Z,52.71
2022-10-02T13:12:41.020Z,51.75
2022-10-02T13:15:37.320Z,50.40
2022-10-02T13:18:25.454Z,51.30
2022-10-02T13:21:04.271Z,51.81
2022-10-02T13:23:42.539Z,53.58
2022-10-02T13:26:22.338Z,55.07
2022-10-02T13:29:32.972Z,56.56
2022-10-02T13:32:46.962Z,57.90
2022-10-02T13:35:44.305Z,56.75
2022-10-02T13:38:43.922Z,54.92
2022-10-02T13:41:26.645Z,53.46
2022-10-02T13:44:08.961Z,52.24
2022-10-02T13:47:20.863Z,51.00
2022-10-02T13:50:17.800Z,49.33
2022-10-02T13:53:13.458Z,50.22
2022-10-02T13:55:47.093Z,52.31
2022-10-02T13:58:37.225Z,53.83
2022-10-02T14:01:20.591Z,55.11
2022-10-02T14:04:11.410Z,56.20
2022-10-02T14:06:45.946Z,57.15
2022-10-02T14:09:39.547Z,57.35
2022-10-02T14:12:37.642Z,57.99
2022-10-02T14:15:33.625Z,59.03
2022-10-02T14:18:46.721Z,60.17
2022-10-02T14:21:31.231Z,60.36
2022-10-02T14:24:45.938Z,60.80
2022-10-02T14:27:40.996Z,60.74
2022-10-02T14:30:24.234Z,60.59
2022-10-02T14:33:07.905Z,60.52
2022-10-02T14:35:49.171Z,60.86
2022-10-02T14:38:41.571Z,61.26
2022-10-02T14:41:37.955Z,61.38
2022-10-02T14:44:52.138Z,61.95
2022-10-02T14:47:56.264Z,62.39
2022-10-02T14:50:57.223Z,62.60
2022-10-02T14:54:19.999Z,62.79
2022-10-02T14:57:17.363Z,62.79
2022-10-02T15:00:18.566Z,63.23
2022-10-02T15:04:07.010Z,63.19
2022-10-02T15:07:00.827Z,63.38
2022-10-02T15:09:40.368Z,64.17
2022-10-02T15:12:21.255Z,64.53
2022-10-02T15:15:12.804Z,64.79
2022-10-02T15:17:56.613Z,64.33
2022-10-02T15:20:40.641Z,64.10
2022-10-02T15:23:16.896Z,63.96
2022-10-02T15:26:14.298Z,64.06
2022-10-02T15:28:56.623Z,64.25
2022-10-02T15:31:38.208Z,64.25
2022-10-02T15:34:20.192Z,64.66
2022-10-02T15:37:14.087Z,64.54
2022-10-02T15:40:06.428Z,64.68
2022-10-02T15:42:56.170Z,63.00
2022-10-02T15:45:59.702Z,62.24
2022-10-02T15:49:02.205Z,63.34
2022-10-02T15:52:00.989Z,63.32
2022-10-02T15:54:51.630Z,61.23
2022-10-02T15:57:44.470Z,59.41
2022-10-02T16:00:23.848Z,58.94
2022-10-02T16:03:02.994Z,57.33
2022-10-02T16:05:56.485Z,57.78
2022-10-02T16:08:57.067Z,59.41
2022-10-02T16:12:05.110Z,61.08
2022-10-02T16:14:45.915Z,61.82
2022-10-02T16:17:47.034Z,62.80
2022-10-02T16:20:41.450Z,63.72
2022-10-02T16:23:30.341Z,64.53
2022-10-02T16:26:28.189Z,65.14
2022-10-02T16:29:17.115Z,66.07
2022-10-02T16:32:02.173Z,66.65
2022-10-02T16:34:45.684Z,67.20
2022-10-02T16:37:25.106Z,67.34
2022-10-02T16:40:00.662Z,68.08
2022-10-02T16:42:42.446Z,68.31
2022-10-02T16:45:43.499Z,68.83
2022-10-02T16:48:16.410Z,69.51
2022-10-02T16:51:13.715Z,69.80
2022-10-02T16:53:49.121Z,70.50
2022-10-02T16:56:24.614Z,70.72
2022-10-02T16:59:01.617Z,71.04
2022-10-02T17:01:35.914Z,71.42
2022-10-02T17:04:22.090Z,71.75
2022-10-02T17:07:00.113Z,72.18
2022-10-02T17:09:39.864Z,72.67
2022-10-02T17:12:21.108Z,72.46
2022-10-02T17:14:57.210Z,73.08
2022-10-02T17:17:34.914Z,73.19
2022-10-02T17:20:18.310Z,74.09
2022-10-02T17:22:58.402Z,74.61
2022-10-02T17:25:33.104Z,75.16
2022-10-02T17:28:09.606Z,74.83
2022-10-02T17:30:58.526Z,75.92
2022-10-02T17:33:32.335Z,75.67
2022-10-02T17:36:12.902Z,76.29
2022-10-02T17:39:14.987Z,76.30
2022-10-02T17:41:53.014Z,77.33
2022-10-02T17:44:47.492Z,77.17
2022-10-02T17:47:38.799Z,77.15
2022-10-02T17:50:32.418Z,78.05
2022-10-02T17:53:34.616Z,78.49
2022-10-02T17:56:28.968Z,78.51
2022-10-02T17:59:56.020Z,78.97
2022-10-02T18:03:00.452Z,79.24
2022-10-02T18:05:39.712Z,79.26
2022-10-02T18:08:30.603Z,79.54
2022-10-02T18:11:08.948Z,80.23
2022-10-02T18:13:58.677Z,80.36
2022-10-02T18:16:40.825Z,80.51
2022-10-02T18:19:27.682Z,81.02
2022-10-02T18:22:22.161Z,81.13
2022-10-02T18:25:19.302Z,81.27
2022-10-02T18:28:18.837Z,81.39
2022-10-02T18:30:58.867Z,81.57
2022-10-02T18:34:21.573Z,81.89
2022-10-02T18:37:10.475Z,82.36
2022-10-02T18:39:44.951Z,82.71
2022-10-02T18:42:41.050Z,82.40
2022-10-02T18:45:34.901Z,82.99
2022-10-02T18:48:23.344Z,83.29
2022-10-02T18:51:16.677Z,83.47
2022-10-02T18:54:05.230Z,83.24
2022-10-02T18:56:55.910Z,83.76
2022-10-02T18:59:41.575Z,83.98
2022-10-02T19:02:27.347Z,83.88
2022-10-02T19:05:25.755Z,83.89
2022-10-02T19:08:08.755Z,84.09
2022-10-02T19:10:47.526Z,84.56
2022-10-02T19:13:25.046Z,84.48
2022-10-02T19:15:59.018Z,85.00
2022-10-02T19:18:31.268Z,84.81
2022-10-02T19:21:06.672Z,84.83
2022-10-02T19:23:39.794Z,85.24
2022-10-02T19:26:19.015Z,85.46
2022-10-02T19:28:50.843Z,84.97
2022-10-02T19:31:24.241Z,85.50
2022-10-02T19:33:57.310Z,85.53
2022-10-02T19:36:28.286Z,85.92
2022-10-02T19:39:01.366Z,85.99
2022-10-02T19:41:35.369Z,85.91
2022-10-02T19:44:07.164Z,85.93
2022-10-02T19:46:39.693Z,85.74
2022-10-02T19:49:20.291Z,85.86
2022-10-02T19:51:48.861Z,86.32
2022-10-02T19:54:21.820Z,86.15
2022-10-02T19:56:55.037Z,86.48
2022-10-02T19:59:29.629Z,86.69
2022-10-02T20:02:03.615Z,86.66
2022-10-02T20:04:33.670Z,86.61
2022-10-02T20:07:02.993Z,87.02
2022-10-02T20:09:37.383Z,86.93
2022-10-02T20:12:11.847Z,86.98
2022-10-02T20:14:44.970Z,86.88
2022-10-02T20:17:13.885Z,86.94
2022-10-02T20:19:48.240Z,86.87
2022-10-02T20:22:24.985Z,87.38
2022-10-02T20:24:59.514Z,87.23
2022-10-02T20:27:39.467Z,87.41
2022-10-02T20:30:14.512Z,87.57
2022-10-02T20:32:51.216Z,87.27
2022-10-02T20:35:29.138Z,87.55
2022-10-02T20:38:02.106Z,87.88
2022-10-02T20:40:36.825Z,87.95
2022-10-02T20:43:09.887Z,87.81
2022-10-02T20:45:47.050Z,88.07
2022-10-02T20:49:07.933Z,88.19
2022-10-02T20:52:14.973Z,88.32
2022-10-02T20:54:54.045Z,88.40
2022-10-02T20:58:04.625Z,88.18
2022-10-02T21:00:52.071Z,88.20
2022-10-02T21:03:56.722Z,87.95
2022-10-02T21:07:07.061Z,88.75
2022-10-02T21:10:28.490Z,88.22
2022-10-02T21:13:48.392Z,88.68
2022-10-02T21:16:49.872Z,88.78
2022-10-02T21:19:41.804Z,88.95
2022-10-02T21:23:01.405Z,89.01
2022-10-02T21:26:18.084Z,89.24
2022-10-02T21:29:36.797Z,89.05
2022-10-02T21:32:51.084Z,89.08
2022-10-02T21:35:41.193Z,89.15
2022-10-02T21:38:52.748Z,88.97
2022-10-02T21:42:18.462Z,89.25
2022-10-02T21:45:35.118Z,89.23
2022-10-02T21:49:05.889Z,89.41
2022-10-02T21:52:07.445Z,89.31
2022-10-02T21:55:39.460Z,89.32
2022-10-02T21:59:08.005Z,89.43
2022-10-02T22:02:09.286Z,89.61
2022-10-02T22:05:22.663Z,89.88
2022-10-02T22:08:01.005Z,89.82
2022-10-02T22:10:36.906Z,89.85
2022-10-02T22:13:23.254Z,89.93
2022-10-02T22:16:05.064Z,90.11
2022-10-02T22:18:47.848Z,90.37
2022-10-02T22:21:36.519Z,90.49
2022-10-02T22:24:25.232Z,90.49
2022-10-02T22:27:12.633Z,90.39
2022-10-02T22:29:51.151Z,90.46
2022-10-02T22:33:07.282Z,90.73
2022-10-02T22:36:11.801Z,91.05
2022-10-02T22:38:45.426Z,91.02
2022-10-02T22:41:27.358Z,90.82
2022-10-02T22:44:00.022Z,90.88
2022-10-02T22:46:46.979Z,90.77
2022-10-02T22:49:24.576Z,90.41
2022-10-02T22:52:01.311Z,90.58
2022-10-02T22:54:40.025Z,90.51
2022-10-02T22:57:19.240Z,90.53
2022-10-02T22:59:55.668Z,90.72
2022-10-02T23:02:32.449Z,90.53
2022-10-02T23:05:10.909Z,90.47
2022-10-02T23:07:49.590Z,90.70
2022-10-02T23:10:30.102Z,90.93
2022-10-02T23:13:06.534Z,91.25
2022-10-02T23:15:43.217Z,91.08
2022-10-02T23:18:32.345Z,90.91
2022-10-02T23:21:11.946Z,91.07
2022-10-02T23:23:50.920Z,91.03
2022-10-02T23:26:28.644Z,91.07
2022-10-02T23:29:14.979Z,91.15
2022-10-02T23:31:52.854Z,91.49
2022-10-02T23:34:36.331Z,91.17
2022-10-02T23:37:18.751Z,91.74
2022-10-02T23:39:55.628Z,91.60
2022-10-02T23:42:32.979Z,91.60
2022-10-02T23:45:08.319Z,91.66
2022-10-02T23:47:54.769Z,91.29
2022-10-02T23:50:29.554Z,91.72
2022-10-02T23:53:38.599Z,91.82
2022-10-02T23:56:24.296Z,92.07
2022-10-02T23:59:12.557Z,91.91
